Time;durP1;ratioP1;P1;durP2;ratioP2;P2;SDS_P1;SDS_P2;PMS_P1;PMS_P2;Temp;Humidity;BMP_temperature;BMP_pressure;BME280_temperature;BME280_humidity;BME280_pressure;Samples;Min_cycle;Max_cycle;Signal;HPM_P1;HPM_P2
2022/11/12 00:00:01;;;;;;;;;;;;;;;;;;5051781;28;19952;-59
2022/11/12 00:02:27;;;;;;;;;;;;;;;;;;5039040;28;19956;-60
2022/11/12 00:04:53;;;;;;;;;;;;;;;;;;5052122;28;19955;-59
2022/11/12 00:07:19;;;;;;;;;;;;;;;;;;5052413;28;20017;-59
2022/11/12 00:09:45;;;;;;;;;;;;;;;;;;5052612;28;19913;-58
2022/11/12 00:12:10;;;;;;;;;;;;;;;;;;5049993;28;19955;-59
2022/11/12 00:14:36;;;;;;;;;;;;;;;;;;5052038;28;19920;-59
2022/11/12 00:17:02;;;;;;;;;;;;;;;;;;5052450;28;19913;-57
2022/11/12 00:19:28;;;;;;;;;;;;;;;;;;5052568;28;20372;-60
2022/11/12 00:21:54;;;;;;;;;;;;;;;;;;5051654;28;19909;-59
2022/11/12 00:24:20;;;;;;;;;;;;;;;;;;5051937;28;20043;-58
2022/11/12 00:26:46;;;;;;;;;;;;;;;;;;5052322;28;19913;-60
2022/11/12 00:29:12;;;;;;;;;;;;;;;;;;5051571;28;19920;-59
2022/11/12 00:31:38;;;;;;;;;;;;;;;;;;5051931;28;20332;-59
2022/11/12 00:34:03;;;;;;;;;;;;;;;;;;5051713;28;19913;-59
2022/11/12 00:36:29;;;;;;;;;;;;;;;;;;5050878;28;19959;-60
2022/11/12 00:38:55;;;;;;;;;;;;;;;;;;5051916;28;19955;-60
2022/11/12 00:41:21;;;;;;;;;;;;;;;;;;5051990;28;20459;-59
2022/11/12 00:43:47;;;;;;;;;;;;;;;;;;5049866;28;19923;-60
2022/11/12 00:46:13;;;;;;;;;;;;;;;;;;5057260;28;20326;-59
2022/11/12 00:48:39;;;;;;;;;;;;;;;;;;5051134;28;19955;-59
2022/11/12 00:51:05;;;;;;;;;;;;;;;;;;5050983;28;19952;-59
2022/11/12 00:53:31;;;;;;;;;;;;;;;;;;5051316;28;19959;-59
2022/11/12 00:55:56;;;;;;;;;;;;;;;;;;5052010;28;20506;-59
2022/11/12 00:58:22;;;;;;;;;;;;;;;;;;5052030;28;19909;-60
2022/11/12 01:00:48;;;;;;;;;;;;;;;;;;5051070;28;19912;-60
2022/11/12 01:03:14;;;;;;;;;;;;;;;;;;5049577;28;19913;-59
2022/11/12 01:05:40;;;;;;;;;;;;;;;;;;5050680;28;19967;-60
2022/11/12 01:08:06;;;;;;;;;;;;;;;;;;5052111;28;19920;-60
2022/11/12 01:10:32;;;;;;;;;;;;;;;;;;5051323;28;19940;-57
2022/11/12 01:12:58;;;;;;;;;;;;;;;;;;5049213;28;19923;-60
2022/11/12 01:15:24;;;;;;;;;;;;;;;;;;5051603;28;20477;-60
2022/11/12 01:17:50;;;;;;;;;;;;;;;;;;5051728;28;19913;-60
2022/11/12 01:20:15;;;;;;;;;;;;;;;;;;5049469;28;20434;-59
2022/11/12 01:22:41;;;;;;;;;;;;;;;;;;5039715;28;19948;-60
2022/11/12 01:25:07;;;;;;;;;;;;;;;;;;5051596;28;19909;-60
2022/11/12 01:27:33;;;;;;;;;;;;;;;;;;5051829;28;20375;-59
2022/11/12 01:29:59;;;;;;;;;;;;;;;;;;5051228;28;20388;-60
2022/11/12 01:32:26;;;;;;;;;;;;;;;;;;5050959;28;19967;-60
2022/11/12 01:34:52;;;;;;;;;;;;;;;;;;5049488;28;19917;-60
2022/11/12 01:37:18;;;;;;;;;;;;;;;;;;5051436;28;19958;-59
2022/11/12 01:39:44;;;;;;;;;;;;;;;;;;5051051;28;20594;-60
2022/11/12 01:42:10;;;;;;;;;;;;;;;;;;5051084;28;20327;-60
2022/11/12 01:44:36;;;;;;;;;;;;;;;;;;5051424;28;20015;-60
2022/11/12 01:47:02;;;;;;;;;;;;;;;;;;5051465;28;19944;-59
2022/11/12 01:49:28;;;;;;;;;;;;;;;;;;5045718;28;20443;-60
2022/11/12 01:51:54;;;;;;;;;;;;;;;;;;5057000;28;20020;-59
2022/11/12 01:54:20;;;;;;;;;;;;;;;;;;5049882;28;19970;-60
2022/11/12 01:56:45;;;;;;;;;;;;;;;;;;5051446;28;20352;-60
2022/11/12 01:59:11;;;;;;;;;;;;;;;;;;5035802;28;19955;-58
2022/11/12 02:01:37;;;;;;;;;;;;;;;;;;5053971;28;20392;-58
2022/11/12 02:04:03;;;;;;;;;;;;;;;;;;5055234;28;20380;-58
2022/11/12 02:06:29;;;;;;;;;;;;;;;;;;5054853;28;20157;-58
2022/11/12 02:08:55;;;;;;;;;;;;;;;;;;5055302;28;19916;-58
2022/11/12 02:11:21;;;;;;;;;;;;;;;;;;5053134;28;19919;-58
2022/11/12 02:14:03;;;;;;;;;;;;;;;;;;5054894;28;19928;-58
2022/11/12 02:16:30;;;;;;;;;;;;;;;;;;5047894;28;20009;-58
2022/11/12 02:18:56;;;;;;;;;;;;;;;;;;5055113;28;19916;-58
2022/11/12 02:21:22;;;;;;;;;;;;;;;;;;5053393;28;19932;-58
2022/11/12 02:23:47;;;;;;;;;;;;;;;;;;5050945;28;19960;-59
2022/11/12 02:26:13;;;;;;;;;;;;;;;;;;5054891;28;20379;-59
2022/11/12 02:28:39;;;;;;;;;;;;;;;;;;5054886;28;20003;-58
2022/11/12 02:31:05;;;;;;;;;;;;;;;;;;5053686;28;19935;-58
2022/11/12 02:33:31;;;;;;;;;;;;;;;;;;5054722;28;19909;-58
2022/11/12 02:35:57;;;;;;;;;;;;;;;;;;5054455;28;19955;-57
2022/11/12 02:38:23;;;;;;;;;;;;;;;;;;5054578;28;19919;-58
2022/11/12 02:40:49;;;;;;;;;;;;;;;;;;5054279;28;19908;-58
2022/11/12 02:43:14;;;;;;;;;;;;;;;;;;5054058;28;20356;-58
2022/11/12 02:45:40;;;;;;;;;;;;;;;;;;5054127;28;19916;-58
2022/11/12 02:48:06;;;;;;;;;;;;;;;;;;5054467;28;20000;-58
2022/11/12 02:50:32;;;;;;;;;;;;;;;;;;5052692;28;19913;-58
2022/11/12 02:52:58;;;;;;;;;;;;;;;;;;5052197;28;20006;-58
2022/11/12 02:55:24;;;;;;;;;;;;;;;;;;5054147;28;19909;-58
2022/11/12 02:57:50;;;;;;;;;;;;;;;;;;5054512;28;19919;-58
2022/11/12 03:00:17;;;;;;;;;;;;;;;;;;5053429;28;19952;-58
2022/11/12 03:02:57;;;;;;;;;;;;;;;;;;5053933;28;20011;-58
2022/11/12 03:05:23;;;;;;;;;;;;;;;;;;5054326;28;20275;-58
2022/11/12 03:07:49;;;;;;;;;;;;;;;;;;5053913;28;19936;-58
2022/11/12 03:10:15;;;;;;;;;;;;;;;;;;5053648;28;19991;-58
2022/11/12 03:12:41;;;;;;;;;;;;;;;;;;5052073;28;20439;-58
2022/11/12 03:15:07;;;;;;;;;;;;;;;;;;5053167;28;19927;-58
2022/11/12 03:17:32;;;;;;;;;;;;;;;;;;5053914;28;19956;-58
2022/11/12 03:19:58;;;;;;;;;;;;;;;;;;5052339;28;20050;-58
2022/11/12 03:22:24;;;;;;;;;;;;;;;;;;5052692;28;19913;-58
2022/11/12 03:24:50;;;;;;;;;;;;;;;;;;5053854;28;19913;-59
2022/11/12 03:27:16;;;;;;;;;;;;;;;;;;5053470;28;19955;-58
2022/11/12 03:29:42;;;;;;;;;;;;;;;;;;5048770;28;19916;-59
2022/11/12 03:32:08;;;;;;;;;;;;;;;;;;5050965;28;19966;-58
2022/11/12 03:34:34;;;;;;;;;;;;;;;;;;5053625;28;20470;-58
2022/11/12 03:36:59;;;;;;;;;;;;;;;;;;5053341;28;20003;-58
2022/11/12 03:39:25;;;;;;;;;;;;;;;;;;5051426;28;19912;-58
2022/11/12 03:41:51;;;;;;;;;;;;;;;;;;5047857;28;19970;-58
2022/11/12 03:44:17;;;;;;;;;;;;;;;;;;5053396;28;20004;-58
2022/11/12 03:46:43;;;;;;;;;;;;;;;;;;5052900;28;19913;-58
2022/11/12 03:49:09;;;;;;;;;;;;;;;;;;5053304;28;19955;-58
2022/11/12 03:51:35;;;;;;;;;;;;;;;;;;5052000;28;20372;-58
2022/11/12 03:54:01;;;;;;;;;;;;;;;;;;5051863;28;19919;-58
2022/11/12 03:56:27;;;;;;;;;;;;;;;;;;5035234;28;20337;-57
2022/11/12 03:58:52;;;;;;;;;;;;;;;;;;5053266;28;19908;-58
2022/11/12 04:01:18;;;;;;;;;;;;;;;;;;5051792;28;19919;-59
2022/11/12 04:03:44;;;;;;;;;;;;;;;;;;5053095;28;19913;-59
2022/11/12 04:08:55;;;;;;;;;;;;;;;;;;5052681;28;19919;-58
2022/11/12 04:11:21;;;;;;;;;;;;;;;;;;5051631;28;19920;-59
2022/11/12 04:13:47;;;;;;;;;;;;;;;;;;5051231;28;20046;-58
2022/11/12 04:21:53;;;;;;;;;;;;;;;;;;5051749;28;20307;-59
2022/11/12 04:27:03;;;;;;;;;;;;;;;;;;5052545;28;19919;-58
2022/11/12 04:32:14;;;;;;;;;;;;;;;;;;5049533;28;19920;-58
2022/11/12 04:34:40;;;;;;;;;;;;;;;;;;5052603;28;19917;-59
2022/11/12 04:37:06;;;;;;;;;;;;;;;;;;5038714;28;19967;-59
2022/11/12 04:39:31;;;;;;;;;;;;;;;;;;5052253;28;19994;-58
2022/11/12 04:45:02;;;;;;;;;;;;;;;;;;5052104;28;19919;-58
2022/11/12 04:47:28;;;;;;;;;;;;;;;;;;5052197;28;19912;-58
2022/11/12 04:49:54;;;;;;;;;;;;;;;;;;5051366;28;19999;-59
2022/11/12 04:52:20;;;;;;;;;;;;;;;;;;5051518;28;20571;-58
2022/11/12 04:54:46;;;;;;;;;;;;;;;;;;5051684;28;19919;-58
2022/11/12 04:57:12;;;;;;;;;;;;;;;;;;5051888;28;20015;-58
2022/11/12 04:59:38;;;;;;;;;;;;;;;;;;5052223;28;20279;-59
2022/11/12 05:02:04;;;;;;;;;;;;;;;;;;5050426;28;19924;-58
2022/11/12 05:04:30;;;;;;;;;;;;;;;;;;5052228;28;19948;-58
2022/11/12 05:06:56;;;;;;;;;;;;;;;;;;5051853;28;19948;-58
2022/11/12 05:09:21;;;;;;;;;;;;;;;;;;5051305;28;19917;-58
2022/11/12 05:11:47;;;;;;;;;;;;;;;;;;5049343;28;20020;-58
2022/11/12 05:14:13;;;;;;;;;;;;;;;;;;5051922;28;19921;-59
2022/11/12 05:16:39;;;;;;;;;;;;;;;;;;5051792;28;19963;-58
2022/11/12 05:19:05;;;;;;;;;;;;;;;;;;5052257;28;19999;-59
2022/11/12 05:24:16;;;;;;;;;;;;;;;;;;5047683;28;19971;-60
2022/11/12 05:26:42;;;;;;;;;;;;;;;;;;5050610;28;19952;-59
2022/11/12 05:29:07;;;;;;;;;;;;;;;;;;5051894;28;19916;-59
2022/11/12 05:31:33;;;;;;;;;;;;;;;;;;5048557;28;19913;-59
2022/11/12 05:33:59;;;;;;;;;;;;;;;;;;5051975;28;19916;-59
2022/11/12 05:36:25;;;;;;;;;;;;;;;;;;5054422;28;20017;-59
2022/11/12 05:38:51;;;;;;;;;;;;;;;;;;5055406;28;20451;-58
2022/11/12 05:41:17;;;;;;;;;;;;;;;;;;5054389;28;20016;-59
2022/11/12 05:43:43;;;;;;;;;;;;;;;;;;5048527;28;19913;-59
2022/11/12 05:46:09;;;;;;;;;;;;;;;;;;5055735;28;19909;-59
2022/11/12 05:48:35;;;;;;;;;;;;;;;;;;5055404;28;19998;-59
2022/11/12 05:51:00;;;;;;;;;;;;;;;;;;5054191;28;19916;-58
2022/11/12 05:53:26;;;;;;;;;;;;;;;;;;5054009;28;19963;-59
2022/11/12 05:55:52;;;;;;;;;;;;;;;;;;5054761;28;19979;-58
2022/11/12 05:58:18;;;;;;;;;;;;;;;;;;5055555;28;20346;-58
2022/11/12 06:00:44;;;;;;;;;;;;;;;;;;5054373;28;19919;-59
2022/11/12 06:03:10;;;;;;;;;;;;;;;;;;5055546;28;19917;-58
2022/11/12 06:05:36;;;;;;;;;;;;;;;;;;5054893;28;20367;-58
2022/11/12 06:08:02;;;;;;;;;;;;;;;;;;5051399;28;19949;-59
2022/11/12 06:10:28;;;;;;;;;;;;;;;;;;5053647;28;19963;-58
2022/11/12 06:12:54;;;;;;;;;;;;;;;;;;5054383;28;19960;-58
2022/11/12 06:15:20;;;;;;;;;;;;;;;;;;5053285;28;20415;-58
2022/11/12 06:17:46;;;;;;;;;;;;;;;;;;5054699;28;20330;-59
2022/11/12 06:20:12;;;;;;;;;;;;;;;;;;5052444;28;19963;-59
2022/11/12 06:22:38;;;;;;;;;;;;;;;;;;5055004;28;19959;-59
2022/11/12 06:25:04;;;;;;;;;;;;;;;;;;5054930;28;19944;-58
2022/11/12 06:27:30;;;;;;;;;;;;;;;;;;5054944;28;19967;-59
2022/11/12 06:29:56;;;;;;;;;;;;;;;;;;5054174;28;19963;-58
2022/11/12 06:32:22;;;;;;;;;;;;;;;;;;5052717;28;19999;-59
2022/11/12 06:34:49;;;;;;;;;;;;;;;;;;5052939;28;19928;-58
2022/11/12 06:37:15;;;;;;;;;;;;;;;;;;5054005;28;19917;-58
2022/11/12 06:39:41;;;;;;;;;;;;;;;;;;5053475;28;19948;-58
2022/11/12 06:42:07;;;;;;;;;;;;;;;;;;5052850;28;19952;-58
2022/11/12 06:44:32;;;;;;;;;;;;;;;;;;5053135;28;20000;-58
2022/11/12 06:46:58;;;;;;;;;;;;;;;;;;5052375;28;20357;-58
2022/11/12 06:49:24;;;;;;;;;;;;;;;;;;5053190;28;19912;-58
2022/11/12 06:51:50;;;;;;;;;;;;;;;;;;5052511;28;19983;-58
2022/11/12 06:54:16;;;;;;;;;;;;;;;;;;5053595;28;19921;-58
2022/11/12 06:56:42;;;;;;;;;;;;;;;;;;5052361;28;19923;-59
2022/11/12 06:59:08;;;;;;;;;;;;;;;;;;5051876;28;19952;-59
2022/11/12 07:01:34;;;;;;;;;;;;;;;;;;5052922;28;19912;-58
2022/11/12 07:04:00;;;;;;;;;;;;;;;;;;5052655;28;20288;-59
2022/11/12 07:06:26;;;;;;;;;;;;;;;;;;5052249;28;19923;-59
2022/11/12 07:08:51;;;;;;;;;;;;;;;;;;5052202;28;19960;-59
2022/11/12 07:11:17;;;;;;;;;;;;;;;;;;5051041;28;19913;-58
2022/11/12 07:13:43;;;;;;;;;;;;;;;;;;5052555;28;19927;-58
2022/11/12 07:16:18;;;;;;;;;;;;;;;;;;5053182;28;20378;-59
2022/11/12 07:18:44;;;;;;;;;;;;;;;;;;5052871;28;19959;-58
2022/11/12 07:21:10;;;;;;;;;;;;;;;;;;5053446;28;19955;-59
2022/11/12 07:23:36;;;;;;;;;;;;;;;;;;5052767;28;19944;-58
2022/11/12 07:26:02;;;;;;;;;;;;;;;;;;5053860;28;20390;-58
2022/11/12 07:28:28;;;;;;;;;;;;;;;;;;5053263;28;19923;-59
2022/11/12 07:30:54;;;;;;;;;;;;;;;;;;5053012;28;19908;-59
2022/11/12 07:33:20;;;;;;;;;;;;;;;;;;5052972;28;19961;-59
2022/11/12 07:35:45;;;;;;;;;;;;;;;;;;5053515;28;20006;-58
2022/11/12 07:38:11;;;;;;;;;;;;;;;;;;5053474;28;19955;-59
2022/11/12 07:40:37;;;;;;;;;;;;;;;;;;5052757;28;20376;-58
2022/11/12 07:43:03;;;;;;;;;;;;;;;;;;5049896;28;19966;-59
2022/11/12 07:45:29;;;;;;;;;;;;;;;;;;5052386;28;20302;-58
2022/11/12 07:47:55;;;;;;;;;;;;;;;;;;5052806;28;19952;-58
2022/11/12 07:50:21;;;;;;;;;;;;;;;;;;5052825;28;19931;-59
2022/11/12 07:52:47;;;;;;;;;;;;;;;;;;5052895;28;19915;-58
2022/11/12 07:55:13;;;;;;;;;;;;;;;;;;5052883;28;19921;-58
2022/11/12 07:57:38;;;;;;;;;;;;;;;;;;5051849;28;19917;-58
2022/11/12 08:00:04;;;;;;;;;;;;;;;;;;5051740;28;19917;-58
2022/11/12 08:02:30;;;;;;;;;;;;;;;;;;5035171;28;19944;-58
2022/11/12 08:04:56;;;;;;;;;;;;;;;;;;5052949;28;19959;-58
2022/11/12 08:07:22;;;;;;;;;;;;;;;;;;5052716;28;20264;-58
2022/11/12 08:09:48;;;;;;;;;;;;;;;;;;5052458;28;19913;-58
2022/11/12 08:12:14;;;;;;;;;;;;;;;;;;5052443;28;19963;-58
2022/11/12 08:14:40;;;;;;;;;;;;;;;;;;5051982;28;19975;-58
2022/11/12 08:17:06;;;;;;;;;;;;;;;;;;5052352;28;19964;-58
2022/11/12 08:19:32;;;;;;;;;;;;;;;;;;5052579;28;19970;-59
2022/11/12 08:21:58;;;;;;;;;;;;;;;;;;5051955;28;20004;-58
2022/11/12 08:24:23;;;;;;;;;;;;;;;;;;5051539;28;19916;-60
2022/11/12 08:26:49;;;;;;;;;;;;;;;;;;5052198;28;19958;-58
2022/11/12 08:29:15;;;;;;;;;;;;;;;;;;5051687;28;19956;-58
2022/11/12 08:31:41;;;;;;;;;;;;;;;;;;5051946;28;19923;-59
2022/11/12 08:34:13;;;;;;;;;;;;;;;;;;5052650;28;20445;-59
2022/11/12 08:36:39;;;;;;;;;;;;;;;;;;5052152;28;19960;-59
2022/11/12 08:39:05;;;;;;;;;;;;;;;;;;5052470;28;19940;-59
2022/11/12 08:41:31;;;;;;;;;;;;;;;;;;5050533;28;20390;-58
2022/11/12 08:43:57;;;;;;;;;;;;;;;;;;5050574;28;19913;-59
2022/11/12 08:46:23;;;;;;;;;;;;;;;;;;5051969;28;20314;-58
2022/11/12 08:48:49;;;;;;;;;;;;;;;;;;5049965;28;19913;-59
2022/11/12 08:51:15;;;;;;;;;;;;;;;;;;5032823;28;20031;-58
2022/11/12 08:53:40;;;;;;;;;;;;;;;;;;5049639;28;19923;-58
2022/11/12 08:56:06;;;;;;;;;;;;;;;;;;5051879;28;19913;-59
2022/11/12 08:58:32;;;;;;;;;;;;;;;;;;5049941;28;20549;-59
2022/11/12 09:00:58;;;;;;;;;;;;;;;;;;5045043;28;19956;-58
2022/11/12 09:03:24;;;;;;;;;;;;;;;;;;5041845;28;19935;-59
2022/11/12 09:05:50;;;;;;;;;;;;;;;;;;5051661;28;19923;-58
2022/11/12 09:08:16;;;;;;;;;;;;;;;;;;5051644;28;19919;-59
2022/11/12 09:10:42;;;;;;;;;;;;;;;;;;5048986;28;20268;-58
2022/11/12 09:13:08;;;;;;;;;;;;;;;;;;5032583;28;19952;-58
2022/11/12 09:15:34;;;;;;;;;;;;;;;;;;5044015;28;19979;-59
2022/11/12 09:17:59;;;;;;;;;;;;;;;;;;5036695;28;19968;-59
2022/11/12 09:20:27;;;;;;;;;;;;;;;;;;5044908;28;19935;-59
2022/11/12 09:22:52;;;;;;;;;;;;;;;;;;5040513;28;19919;-59
2022/11/12 09:25:18;;;;;;;;;;;;;;;;;;5041524;28;19913;-58
2022/11/12 09:27:44;;;;;;;;;;;;;;;;;;5051059;28;20457;-59
2022/11/12 09:30:10;;;;;;;;;;;;;;;;;;5051373;28;19912;-59
2022/11/12 09:32:36;;;;;;;;;;;;;;;;;;5050935;28;20476;-59
2022/11/12 09:35:02;;;;;;;;;;;;;;;;;;5049662;28;19952;-59
2022/11/12 09:37:28;;;;;;;;;;;;;;;;;;5050135;28;19920;-59
2022/11/12 09:39:54;;;;;;;;;;;;;;;;;;5050362;28;20014;-59
2022/11/12 09:42:20;;;;;;;;;;;;;;;;;;5051037;28;19959;-59
2022/11/12 09:44:45;;;;;;;;;;;;;;;;;;5047465;28;20561;-59
2022/11/12 09:47:12;;;;;;;;;;;;;;;;;;5051059;28;19917;-59
2022/11/12 09:49:38;;;;;;;;;;;;;;;;;;5045277;28;19987;-59
2022/11/12 09:52:04;;;;;;;;;;;;;;;;;;5050267;28;19952;-58
2022/11/12 09:54:29;;;;;;;;;;;;;;;;;;5051249;28;19916;-59
2022/11/12 09:56:55;;;;;;;;;;;;;;;;;;5049390;28;20287;-57
2022/11/12 09:59:21;;;;;;;;;;;;;;;;;;5050252;28;19923;-59
2022/11/12 10:01:47;;;;;;;;;;;;;;;;;;5049226;28;19960;-59
2022/11/12 10:04:13;;;;;;;;;;;;;;;;;;5051000;28;19969;-59
2022/11/12 10:06:39;;;;;;;;;;;;;;;;;;5049968;28;20414;-59
2022/11/12 10:09:05;;;;;;;;;;;;;;;;;;5050736;28;20384;-59
2022/11/12 10:12:30;;;;;;;;;;;;;;;;;;5049118;28;20008;-59
2022/11/12 10:14:17;;;;;;;;;;;;;;;;;;5049982;28;20426;-59
2022/11/12 10:16:43;;;;;;;;;;;;;;;;;;5049784;28;19917;-59
2022/11/12 10:19:09;;;;;;;;;;;;;;;;;;5046822;28;19913;-59
2022/11/12 10:21:35;;;;;;;;;;;;;;;;;;5052216;28;19956;-59
2022/11/12 10:24:00;;;;;;;;;;;;;;;;;;5053202;28;20003;-58
2022/11/12 10:26:27;;;;;;;;;;;;;;;;;;5054725;28;19995;-59
2022/11/12 10:28:53;;;;;;;;;;;;;;;;;;5054349;28;19919;-59
2022/11/12 10:31:19;;;;;;;;;;;;;;;;;;5051360;28;19913;-59
2022/11/12 10:33:45;;;;;;;;;;;;;;;;;;5053179;28;19939;-58
2022/11/12 10:36:11;;;;;;;;;;;;;;;;;;5054097;28;19959;-58
2022/11/12 10:38:37;;;;;;;;;;;;;;;;;;5053186;28;20002;-59
2022/11/12 10:41:04;;;;;;;;;;;;;;;;;;5054325;28;20360;-58
2022/11/12 10:43:30;;;;;;;;;;;;;;;;;;5052753;28;19913;-59
2022/11/12 10:45:55;;;;;;;;;;;;;;;;;;5054240;28;19963;-58
2022/11/12 10:48:22;;;;;;;;;;;;;;;;;;5051799;28;20331;-58
2022/11/12 10:50:48;;;;;;;;;;;;;;;;;;5049585;28;19913;-59
2022/11/12 10:53:14;;;;;;;;;;;;;;;;;;5048031;28;19940;-59
2022/11/12 10:55:40;;;;;;;;;;;;;;;;;;5054042;28;19909;-59
2022/11/12 10:58:05;;;;;;;;;;;;;;;;;;5053697;28;19919;-59
2022/11/12 11:00:31;;;;;;;;;;;;;;;;;;5053694;28;19919;-58
2022/11/12 11:02:57;;;;;;;;;;;;;;;;;;5053400;28;19952;-59
2022/11/12 11:05:23;;;;;;;;;;;;;;;;;;5054106;28;20027;-59
2022/11/12 11:07:49;;;;;;;;;;;;;;;;;;5054053;28;19909;-58
2022/11/12 11:10:15;;;;;;;;;;;;;;;;;;5053517;28;19953;-59
2022/11/12 11:12:41;;;;;;;;;;;;;;;;;;5053797;28;19963;-59
2022/11/12 11:15:07;;;;;;;;;;;;;;;;;;5048938;28;20288;-59
2022/11/12 11:17:33;;;;;;;;;;;;;;;;;;5033359;28;20376;-57
2022/11/12 11:19:59;;;;;;;;;;;;;;;;;;5033856;28;20357;-58
2022/11/12 11:22:25;;;;;;;;;;;;;;;;;;5034126;28;19909;-59
2022/11/12 11:24:51;;;;;;;;;;;;;;;;;;5033129;28;19923;-59
2022/11/12 11:27:16;;;;;;;;;;;;;;;;;;5033919;28;19944;-59
2022/11/12 11:29:42;;;;;;;;;;;;;;;;;;5033665;28;20373;-57
2022/11/12 11:32:08;;;;;;;;;;;;;;;;;;5032458;28;19913;-59
2022/11/12 11:34:34;;;;;;;;;;;;;;;;;;5033784;28;19909;-59
2022/11/12 11:37:00;;;;;;;;;;;;;;;;;;5031569;28;19963;-59
2022/11/12 11:39:26;;;;;;;;;;;;;;;;;;5033368;28;19909;-59
2022/11/12 11:41:52;;;;;;;;;;;;;;;;;;5033205;28;19916;-59
2022/11/12 11:44:18;;;;;;;;;;;;;;;;;;5032253;28;19952;-59
2022/11/12 11:46:44;;;;;;;;;;;;;;;;;;5034369;28;19917;-59
2022/11/12 11:49:09;;;;;;;;;;;;;;;;;;5033492;28;19957;-59
2022/11/12 11:51:36;;;;;;;;;;;;;;;;;;5032795;28;20045;-59
2022/11/12 11:54:02;;;;;;;;;;;;;;;;;;5032747;28;19948;-59
2022/11/12 11:56:28;;;;;;;;;;;;;;;;;;5032638;28;20398;-59
2022/11/12 11:58:54;;;;;;;;;;;;;;;;;;5031885;28;19960;-59
2022/11/12 12:01:20;;;;;;;;;;;;;;;;;;5030718;28;20007;-59
2022/11/12 12:03:46;;;;;;;;;;;;;;;;;;5033892;28;19909;-60
2022/11/12 12:06:11;;;;;;;;;;;;;;;;;;5032755;28;19920;-59
2022/11/12 12:08:37;;;;;;;;;;;;;;;;;;5031773;28;20372;-60
2022/11/12 12:11:03;;;;;;;;;;;;;;;;;;5031756;28;19917;-59
2022/11/12 12:13:29;;;;;;;;;;;;;;;;;;5036742;28;19981;-59
2022/11/12 12:15:55;;;;;;;;;;;;;;;;;;5051832;28;19916;-57
2022/11/12 12:18:21;;;;;;;;;;;;;;;;;;5052542;28;19936;-57
2022/11/12 12:20:47;;;;;;;;;;;;;;;;;;5051562;28;19945;-56
2022/11/12 12:23:13;;;;;;;;;;;;;;;;;;5052074;28;19913;-57
2022/11/12 12:25:39;;;;;;;;;;;;;;;;;;5052016;28;20267;-57
2022/11/12 12:28:05;;;;;;;;;;;;;;;;;;5051278;28;19912;-57
2022/11/12 12:30:31;;;;;;;;;;;;;;;;;;5052229;28;19912;-57
2022/11/12 12:32:57;;;;;;;;;;;;;;;;;;5052309;28;19969;-57
2022/11/12 12:35:22;;;;;;;;;;;;;;;;;;5052417;28;19916;-57
2022/11/12 12:37:48;;;;;;;;;;;;;;;;;;5051896;28;19960;-59
2022/11/12 12:40:14;;;;;;;;;;;;;;;;;;5051722;28;20002;-59
2022/11/12 12:42:40;;;;;;;;;;;;;;;;;;5050801;28;20371;-59
2022/11/12 12:45:06;;;;;;;;;;;;;;;;;;5050541;28;19912;-59
2022/11/12 12:47:32;;;;;;;;;;;;;;;;;;5052513;28;19921;-59
2022/11/12 12:49:58;;;;;;;;;;;;;;;;;;5050584;28;19936;-59
2022/11/12 12:52:24;;;;;;;;;;;;;;;;;;5051747;28;19912;-58
2022/11/12 12:54:50;;;;;;;;;;;;;;;;;;5051722;28;19940;-59
2022/11/12 12:57:16;;;;;;;;;;;;;;;;;;5048153;28;19967;-58
2022/11/12 12:59:42;;;;;;;;;;;;;;;;;;5051537;28;20356;-59
2022/11/12 13:02:08;;;;;;;;;;;;;;;;;;5051783;28;19909;-59
2022/11/12 13:04:33;;;;;;;;;;;;;;;;;;5048474;28;20483;-58
2022/11/12 13:06:59;;;;;;;;;;;;;;;;;;5050810;28;19964;-58
2022/11/12 13:09:25;;;;;;;;;;;;;;;;;;5049996;28;19913;-58
2022/11/12 13:14:29;;;;;;;;;;;;;;;;;;5043911;28;19947;-59
2022/11/12 13:16:55;;;;;;;;;;;;;;;;;;5051458;28;19947;-58
2022/11/12 13:19:22;;;;;;;;;;;;;;;;;;5050716;28;21546;-58
2022/11/12 13:21:48;;;;;;;;;;;;;;;;;;5050906;28;19916;-58
2022/11/12 13:24:14;;;;;;;;;;;;;;;;;;5050844;28;20067;-58
2022/11/12 13:26:40;;;;;;;;;;;;;;;;;;5048711;28;19921;-58
2022/11/12 13:29:06;;;;;;;;;;;;;;;;;;5048684;28;20504;-59
2022/11/12 13:31:32;;;;;;;;;;;;;;;;;;5030648;28;19913;-58
2022/11/12 13:33:58;;;;;;;;;;;;;;;;;;5051655;28;19975;-58
2022/11/12 13:36:24;;;;;;;;;;;;;;;;;;5051444;28;20393;-58
2022/11/12 13:38:51;;;;;;;;;;;;;;;;;;5050934;28;19913;-58
2022/11/12 13:41:17;;;;;;;;;;;;;;;;;;5050385;28;19917;-58
2022/11/12 13:43:42;;;;;;;;;;;;;;;;;;5051252;28;19994;-58
2022/11/12 13:46:09;;;;;;;;;;;;;;;;;;5051995;28;19944;-57
2022/11/12 13:48:35;;;;;;;;;;;;;;;;;;5055124;28;19908;-58
2022/11/12 13:51:01;;;;;;;;;;;;;;;;;;5049701;28;19913;-58
2022/11/12 13:53:27;;;;;;;;;;;;;;;;;;5049271;28;19940;-58
2022/11/12 13:55:53;;;;;;;;;;;;;;;;;;5048229;28;19950;-58
2022/11/12 13:58:19;;;;;;;;;;;;;;;;;;5054566;28;20394;-58
2022/11/12 14:00:45;;;;;;;;;;;;;;;;;;5053968;28;19919;-58
2022/11/12 14:03:11;;;;;;;;;;;;;;;;;;5050755;28;19967;-58
2022/11/12 14:05:38;;;;;;;;;;;;;;;;;;5055087;28;20386;-58
2022/11/12 14:08:04;;;;;;;;;;;;;;;;;;5054417;28;19913;-59
2022/11/12 14:10:30;;;;;;;;;;;;;;;;;;5053377;28;19917;-59
2022/11/12 14:12:56;;;;;;;;;;;;;;;;;;5035906;28;19967;-58
2022/11/12 14:15:22;;;;;;;;;;;;;;;;;;5054806;28;20069;-59
2022/11/12 14:17:48;;;;;;;;;;;;;;;;;;5054746;28;19960;-58
2022/11/12 14:20:14;;;;;;;;;;;;;;;;;;5054730;28;19947;-58
2022/11/12 14:22:40;;;;;;;;;;;;;;;;;;5052057;28;19917;-58
2022/11/12 14:25:06;;;;;;;;;;;;;;;;;;5051846;28;19913;-58
2022/11/12 14:27:32;;;;;;;;;;;;;;;;;;5040565;28;20331;-58
2022/11/12 14:29:58;;;;;;;;;;;;;;;;;;5053894;28;19947;-58
2022/11/12 14:32:24;;;;;;;;;;;;;;;;;;5054647;28;19913;-58
2022/11/12 14:34:50;;;;;;;;;;;;;;;;;;5054583;28;20021;-58
2022/11/12 14:37:16;;;;;;;;;;;;;;;;;;5052745;28;19996;-59
2022/11/12 14:39:42;;;;;;;;;;;;;;;;;;5049343;28;19913;-59
2022/11/12 14:42:08;;;;;;;;;;;;;;;;;;5054433;28;20015;-58
2022/11/12 14:44:34;;;;;;;;;;;;;;;;;;5053974;28;20356;-57
2022/11/12 14:46:59;;;;;;;;;;;;;;;;;;5054199;28;19923;-58
2022/11/12 14:49:25;;;;;;;;;;;;;;;;;;5054218;28;19940;-59
2022/11/12 14:51:51;;;;;;;;;;;;;;;;;;5053923;28;20336;-58
2022/11/12 14:54:17;;;;;;;;;;;;;;;;;;5053225;28;19919;-59
2022/11/12 14:56:43;;;;;;;;;;;;;;;;;;5053757;28;19921;-59
2022/11/12 14:59:09;;;;;;;;;;;;;;;;;;5052324;28;20002;-59
2022/11/12 15:01:35;;;;;;;;;;;;;;;;;;5049845;28;20007;-59
2022/11/12 15:04:01;;;;;;;;;;;;;;;;;;5052174;28;20002;-59
2022/11/12 15:06:27;;;;;;;;;;;;;;;;;;5044690;28;19988;-59
2022/11/12 15:08:53;;;;;;;;;;;;;;;;;;5052798;28;19917;-59
2022/11/12 15:11:18;;;;;;;;;;;;;;;;;;5051608;28;20009;-58
2022/11/12 15:13:44;;;;;;;;;;;;;;;;;;5053835;28;20435;-59
2022/11/12 15:16:10;;;;;;;;;;;;;;;;;;5052935;28;19925;-58
2022/11/12 15:18:36;;;;;;;;;;;;;;;;;;5052856;28;20331;-59
2022/11/12 15:21:02;;;;;;;;;;;;;;;;;;5047446;28;19958;-59
2022/11/12 15:23:28;;;;;;;;;;;;;;;;;;5052184;28;19913;-58
2022/11/12 15:25:54;;;;;;;;;;;;;;;;;;5052874;28;20442;-58
2022/11/12 15:28:20;;;;;;;;;;;;;;;;;;5050415;28;20000;-58
2022/11/12 15:30:46;;;;;;;;;;;;;;;;;;5053413;28;20278;-58
2022/11/12 15:33:12;;;;;;;;;;;;;;;;;;5051341;28;20352;-58
2022/11/12 15:35:42;;;;;;;;;;;;;;;;;;5052252;28;19917;-59
2022/11/12 15:38:08;;;;;;;;;;;;;;;;;;5053256;28;19912;-58
2022/11/12 15:40:34;;;;;;;;;;;;;;;;;;5052544;28;20021;-59
2022/11/12 15:43:00;;;;;;;;;;;;;;;;;;5053087;28;20007;-58
2022/11/12 15:45:26;;;;;;;;;;;;;;;;;;5052749;28;19952;-58
2022/11/12 15:47:52;;;;;;;;;;;;;;;;;;5045916;28;19917;-57
2022/11/12 15:50:18;;;;;;;;;;;;;;;;;;5052360;28;19916;-59
2022/11/12 15:52:44;;;;;;;;;;;;;;;;;;5053312;28;19909;-58
2022/11/12 15:55:09;;;;;;;;;;;;;;;;;;5053417;28;19948;-58
2022/11/12 15:57:35;;;;;;;;;;;;;;;;;;5050256;28;20403;-59
2022/11/12 16:00:01;;;;;;;;;;;;;;;;;;5049663;28;19967;-58
2022/11/12 16:02:27;;;;;;;;;;;;;;;;;;5052857;28;19916;-58
2022/11/12 16:04:53;;;;;;;;;;;;;;;;;;5052726;28;19917;-58
2022/11/12 16:07:19;;;;;;;;;;;;;;;;;;5052436;28;19953;-58
2022/11/12 16:09:45;;;;;;;;;;;;;;;;;;5052150;28;19908;-59
2022/11/12 16:12:11;;;;;;;;;;;;;;;;;;5052855;28;20372;-59
2022/11/12 16:14:37;;;;;;;;;;;;;;;;;;5052844;28;19920;-58
2022/11/12 16:17:03;;;;;;;;;;;;;;;;;;5052612;28;20737;-58
2022/11/12 16:19:32;;;;;;;;;;;;;;;;;;5052611;28;19944;-58
2022/11/12 16:21:58;;;;;;;;;;;;;;;;;;5051287;28;19912;-59
2022/11/12 16:24:24;;;;;;;;;;;;;;;;;;5052719;28;20009;-59
2022/11/12 16:26:50;;;;;;;;;;;;;;;;;;5052411;28;19913;-58
2022/11/12 16:29:16;;;;;;;;;;;;;;;;;;5052884;28;19915;-59
2022/11/12 16:31:43;;;;;;;;;;;;;;;;;;5051658;28;19995;-59
2022/11/12 16:34:09;;;;;;;;;;;;;;;;;;5051817;28;19912;-59
2022/11/12 16:36:34;;;;;;;;;;;;;;;;;;5051632;28;20379;-59
2022/11/12 16:39:00;;;;;;;;;;;;;;;;;;5051639;28;19916;-58
2022/11/12 16:41:26;;;;;;;;;;;;;;;;;;5052126;28;19913;-59
2022/11/12 16:43:52;;;;;;;;;;;;;;;;;;5052545;28;20410;-59
2022/11/12 16:46:18;;;;;;;;;;;;;;;;;;5052099;28;19908;-58
2022/11/12 16:48:44;;;;;;;;;;;;;;;;;;5052342;28;19999;-59
2022/11/12 16:51:10;;;;;;;;;;;;;;;;;;5051694;28;20265;-59
2022/11/12 16:53:36;;;;;;;;;;;;;;;;;;5051945;28;19944;-58
2022/11/12 16:56:02;;;;;;;;;;;;;;;;;;5052010;28;19944;-58
2022/11/12 16:58:27;;;;;;;;;;;;;;;;;;5052074;28;19909;-58